Time;durP1;ratioP1;P1;durP2;ratioP2;P2;SDS_P1;SDS_P2;PMS_P1;PMS_P2;Temp;Humidity;BMP_temperature;BMP_pressure;BME280_temperature;BME280_humidity;BME280_pressure;Samples;Min_cycle;Max_cycle;Signal;HPM_P1;HPM_P2
2022/11/20 00:01:08;;;;;;;11.63;4.82;;;;;;;18.13;74.87;99161.53;5075218;28;20035;-83
2022/11/20 00:03:33;;;;;;;11.60;4.18;;;;;;;17.73;74.70;99095.50;5075169;28;20036;-82
2022/11/20 00:06:01;;;;;;;12.65;4.35;;;;;;;18.11;74.38;99143.06;5074957;28;20021;-83
2022/11/20 00:08:26;;;;;;;10.68;4.32;;;;;;;17.67;74.10;99072.41;5073345;28;20480;-83
2022/11/20 00:10:51;;;;;;;14.38;4.20;;;;;;;17.62;74.06;99081.09;5074765;28;20020;-83
2022/11/20 00:13:17;;;;;;;10.35;4.80;;;;;;;18.05;73.84;99155.50;5074767;28;20040;-82
2022/11/20 00:15:42;;;;;;;10.00;4.57;;;;;;;17.83;73.81;99129.63;5074853;28;20021;-82
2022/11/20 00:18:07;;;;;;;11.73;4.45;;;;;;;17.76;73.68;99108.38;5074657;28;20020;-83
2022/11/20 00:20:33;;;;;;;12.98;4.13;;;;;;;17.82;73.57;99114.66;5074480;28;20507;-83
2022/11/20 00:22:59;;;;;;;14.05;4.32;;;;;;;17.63;73.54;99080.06;5073332;28;20027;-83
2022/11/20 00:25:24;;;;;;;13.00;4.72;;;;;;;17.61;73.14;99068.00;5074738;28;20382;-82
2022/11/20 00:27:50;;;;;;;10.40;4.25;;;;;;;17.72;72.95;99083.19;5074568;28;20024;-83
2022/11/20 00:30:15;;;;;;;18.02;4.63;;;;;;;17.68;73.10;99074.84;5074347;28;20526;-82
2022/11/20 00:32:41;;;;;;;9.48;3.97;;;;;;;17.66;73.08;99081.44;5074466;28;20562;-82
2022/11/20 00:35:06;;;;;;;14.02;4.43;;;;;;;18.30;72.71;99160.53;5073242;28;20157;-82
2022/11/20 00:37:32;;;;;;;11.45;4.03;;;;;;;18.10;72.79;99138.75;5073182;28;20052;-83
2022/11/20 00:39:57;;;;;;;12.93;4.10;;;;;;;17.69;72.67;99065.78;5074207;28;20092;-83
2022/11/20 00:42:23;;;;;;;10.98;4.20;;;;;;;16.80;72.51;98934.44;5074238;28;20417;-83
2022/11/20 00:44:48;;;;;;;19.42;4.68;;;;;;;18.23;72.52;99145.69;5074274;28;20100;-83
2022/11/20 00:47:13;;;;;;;16.45;4.38;;;;;;;18.33;72.10;99162.75;5072935;28;20489;-82
2022/11/20 00:49:39;;;;;;;13.65;4.35;;;;;;;18.26;71.78;99146.03;5074239;28;20031;-82
2022/11/20 00:52:04;;;;;;;16.48;4.55;;;;;;;18.19;71.48;99123.16;5072926;28;20035;-83
2022/11/20 00:54:30;;;;;;;14.98;4.57;;;;;;;17.46;71.09;99001.75;5072802;28;20066;-82
2022/11/20 00:56:55;;;;;;;12.70;3.88;;;;;;;17.80;70.79;99040.09;5071461;28;20025;-83
2022/11/20 00:59:20;;;;;;;11.98;4.10;;;;;;;17.93;70.96;99081.78;5073957;28;20463;-82
2022/11/20 01:01:46;;;;;;;14.48;4.88;;;;;;;18.17;70.91;99106.56;5073924;28;20032;-82
2022/11/20 01:04:11;;;;;;;14.63;4.05;;;;;;;17.65;70.79;99035.25;5073891;28;20025;-82
2022/11/20 01:06:38;;;;;;;13.23;4.13;;;;;;;18.21;71.01;99124.56;5073652;28;20044;-82
2022/11/20 01:09:07;;;;;;;14.68;4.13;;;;;;;18.43;70.75;99146.91;5073650;28;20067;-82
2022/11/20 01:11:35;;;;;;;13.95;5.10;;;;;;;18.24;70.67;99105.38;5055908;28;20470;-82
2022/11/20 01:14:03;;;;;;;14.18;3.80;;;;;;;18.26;70.65;99124.66;5073574;28;20032;-83
2022/11/20 01:16:35;;;;;;;10.77;3.97;;;;;;;18.06;70.36;99097.53;5073434;28;20107;-82
2022/11/20 01:19:02;;;;;;;11.35;4.18;;;;;;;18.46;70.62;99156.31;5055589;28;20034;-83
2022/11/20 01:21:33;;;;;;;12.85;4.10;;;;;;;17.67;70.20;99027.84;5073683;28;20032;-82
2022/11/20 01:24:00;;;;;;;15.73;4.20;;;;;;;18.47;70.62;99154.44;5073664;28;20028;-82
2022/11/20 01:26:31;;;;;;;13.18;3.88;;;;;;;17.93;70.39;99071.09;5073535;28;20048;-83
2022/11/20 01:28:57;;;;;;;16.15;4.32;;;;;;;18.49;70.40;99155.00;5073712;28;20035;-82
2022/11/20 01:31:29;;;;;;;13.82;3.95;;;;;;;18.43;70.35;99141.56;5055439;28;20033;-82
2022/11/20 01:33:58;;;;;;;13.70;4.18;;;;;;;18.33;70.15;99119.97;5073404;28;20056;-82
2022/11/20 01:36:27;;;;;;;12.63;3.95;;;;;;;18.48;70.30;99151.53;5054957;28;20115;-82
2022/11/20 01:38:58;;;;;;;13.07;3.85;;;;;;;18.52;69.99;99150.00;5073265;28;20024;-83
2022/11/20 01:44:12;;;;;;;14.35;3.70;;;;;;;18.41;70.18;99151.66;5073761;28;20119;-83
2022/11/20 01:46:56;;;;;;;12.00;3.50;;;;;;;18.28;70.13;99124.41;5055252;28;20024;-83
2022/11/20 01:49:27;;;;;;;10.98;3.40;;;;;;;18.15;69.99;99106.81;5055091;28;20024;-82
2022/11/20 01:51:58;;;;;;;14.68;3.33;;;;;;;18.45;70.24;99170.72;5055223;28;20024;-82
2022/11/20 01:54:47;;;;;;;14.90;3.80;;;;;;;18.45;69.96;99172.59;5072944;28;20028;-83
2022/11/20 01:57:13;;;;;;;12.20;4.05;;;;;;;18.33;69.84;99144.03;5073106;28;20485;-82
2022/11/20 01:59:45;;;;;;;14.85;4.20;;;;;;;18.09;69.75;99100.53;5054962;28;20036;-82
2022/11/20 02:02:10;;;;;;;10.45;3.60;;;;;;;18.39;69.76;99137.72;5054762;28;20029;-82
2022/11/20 02:04:36;;;;;;;12.73;3.88;;;;;;;17.81;69.62;99048.94;5072876;28;20532;-83
2022/11/20 02:07:04;;;;;;;11.90;4.07;;;;;;;18.24;69.47;99110.72;5072760;28;20016;-82
2022/11/20 02:09:30;;;;;;;13.20;4.07;;;;;;;18.49;69.55;99145.13;5068534;28;20040;-83
2022/11/20 02:11:57;;;;;;;13.65;3.88;;;;;;;18.50;69.57;99154.78;5072781;28;20043;-82
2022/11/20 02:14:23;;;;;;;12.90;3.55;;;;;;;18.34;69.54;99134.97;5072656;28;20097;-82
2022/11/20 02:16:49;;;;;;;12.15;3.70;;;;;;;18.50;69.51;99151.28;5072449;28;20063;-82
2022/11/20 02:19:30;;;;;;;10.88;4.07;;;;;;;18.42;69.46;99147.13;5072613;28;20025;-83
2022/11/20 02:22:01;;;;;;;10.93;3.58;;;;;;;18.50;69.44;99143.28;5072695;28;20055;-82
2022/11/20 02:24:27;;;;;;;11.68;3.65;;;;;;;18.13;69.24;99097.41;5071107;28;20043;-83
2022/11/20 02:26:57;;;;;;;13.10;3.88;;;;;;;18.08;69.19;99090.91;5072327;28;20017;-82
2022/11/20 02:29:37;;;;;;;10.48;3.58;;;;;;;18.53;68.84;99161.50;5072197;28;20521;-83
2022/11/20 02:32:03;;;;;;;10.25;3.58;;;;;;;18.13;69.12;99092.88;5072246;28;20024;-83
2022/11/20 02:34:29;;;;;;;13.15;3.55;;;;;;;18.52;68.91;99147.31;5072236;28;20044;-81
2022/11/20 02:36:56;;;;;;;8.50;3.60;;;;;;;18.38;69.05;99127.28;5070893;28;20035;-82
2022/11/20 02:39:25;;;;;;;14.32;3.70;;;;;;;17.84;69.09;99033.28;5072182;28;20027;-82
2022/11/20 02:41:55;;;;;;;11.15;3.42;;;;;;;17.78;68.88;99037.69;5071969;28;20030;-82
2022/11/20 02:44:21;;;;;;;13.33;3.67;;;;;;;18.00;68.99;99066.44;5070698;28;20024;-83
2022/11/20 02:46:46;;;;;;;11.68;4.47;;;;;;;18.07;68.89;99064.44;5072035;28;20328;-82
2022/11/20 02:49:12;;;;;;;13.98;3.70;;;;;;;18.28;69.02;99108.38;5071886;28;20038;-83
2022/11/20 02:51:37;;;;;;;12.50;3.95;;;;;;;18.01;68.84;99066.19;5071796;28;20024;-82
2022/11/20 02:54:03;;;;;;;9.07;3.22;;;;;;;17.61;68.93;98985.22;5071706;28;20566;-82
2022/11/20 02:56:29;;;;;;;12.77;4.05;;;;;;;17.88;68.96;99036.28;5071519;28;20447;-83
2022/11/20 02:58:55;;;;;;;10.88;3.88;;;;;;;18.51;68.81;99107.47;5070506;28;20063;-82
2022/11/20 03:01:20;;;;;;;8.15;3.22;;;;;;;18.08;68.74;99052.69;5071763;28;20051;-83
2022/11/20 03:03:48;;;;;;;13.05;4.00;;;;;;;18.07;68.77;99059.91;5071833;28;20024;-81
2022/11/20 03:06:14;;;;;;;9.38;3.00;;;;;;;18.23;68.78;99092.25;5071669;28;20099;-81
2022/11/20 03:08:39;;;;;;;14.73;3.90;;;;;;;18.23;68.93;99069.00;5070143;28;20143;-81
2022/11/20 03:11:06;;;;;;;13.60;3.55;;;;;;;18.46;69.03;99126.91;5071484;28;20035;-82
2022/11/20 03:13:32;;;;;;;12.40;3.80;;;;;;;18.48;68.65;99121.31;5071478;28;20497;-81
2022/11/20 03:15:58;;;;;;;11.55;3.33;;;;;;;18.04;68.79;99073.72;5071329;28;20031;-83
2022/11/20 03:18:23;;;;;;;12.32;3.67;;;;;;;17.99;68.90;99051.47;5071325;28;20024;-82
2022/11/20 03:20:49;;;;;;;10.98;3.83;;;;;;;18.10;68.74;99062.09;5069200;28;20046;-82
2022/11/20 03:23:14;;;;;;;11.45;3.78;;;;;;;18.06;68.94;99052.13;5071575;28;20020;-82
2022/11/20 03:25:39;;;;;;;8.75;2.80;;;;;;;17.59;68.90;98957.97;5071505;28;20409;-82
2022/11/20 03:28:05;;;;;;;15.73;3.30;;;;;;;17.93;68.97;99004.34;5071427;28;20027;-81
2022/11/20 03:30:30;;;;;;;13.15;3.15;;;;;;;17.86;68.86;99043.72;5071660;28;20162;-82
2022/11/20 03:32:56;;;;;;;10.57;3.00;;;;;;;18.02;69.06;99033.09;5071561;28;20024;-82
2022/11/20 03:35:21;;;;;;;13.32;3.53;;;;;;;17.81;69.10;99008.88;5071316;28;20074;-82
2022/11/20 03:37:47;;;;;;;13.57;3.42;;;;;;;18.23;69.23;99066.34;5071542;28;20099;-82
2022/11/20 03:40:12;;;;;;;11.77;3.28;;;;;;;17.66;69.10;98954.13;5071402;28;20082;-83
2022/11/20 03:42:47;;;;;;;10.95;2.90;;;;;;;18.50;69.25;99108.50;5071384;28;20016;-83
2022/11/20 03:45:17;;;;;;;19.20;3.75;;;;;;;18.50;69.30;99106.66;5071330;28;20032;-83
2022/11/20 03:47:43;;;;;;;8.50;2.92;;;;;;;18.09;69.47;99049.78;5071290;28;20012;-82
2022/11/20 03:50:10;;;;;;;8.85;2.92;;;;;;;18.03;69.48;99040.06;5071281;28;20401;-83
2022/11/20 03:52:35;;;;;;;9.07;3.20;;;;;;;18.29;69.43;99076.06;5069891;28;20021;-82
2022/11/20 03:55:01;;;;;;;8.95;2.90;;;;;;;18.33;69.71;99079.88;5071313;28;20021;-82
2022/11/20 03:57:26;;;;;;;12.93;3.47;;;;;;;18.47;69.78;99109.81;5071146;28;20029;-83
2022/11/20 03:59:51;;;;;;;10.30;3.08;;;;;;;17.74;69.67;99012.50;5071057;28;20151;-82
2022/11/20 04:02:17;;;;;;;11.27;3.83;;;;;;;18.03;69.78;99033.91;5069681;28;20028;-83
2022/11/20 04:04:42;;;;;;;13.52;3.67;;;;;;;17.67;69.70;98976.31;5071083;28;20099;-82
2022/11/20 04:07:08;;;;;;;11.38;3.40;;;;;;;17.43;69.78;98908.81;5071030;28;20515;-82
2022/11/20 04:09:33;;;;;;;10.25;3.38;;;;;;;18.30;69.82;99064.34;5070798;28;20048;-82
2022/11/20 04:11:59;;;;;;;10.43;3.10;;;;;;;17.74;69.81;98963.63;5070910;28;20113;-83
2022/11/20 04:14:24;;;;;;;10.98;3.28;;;;;;;18.11;70.15;99033.53;5070936;28;20027;-83
2022/11/20 04:16:49;;;;;;;8.70;3.03;;;;;;;18.19;70.08;99029.66;5070993;28;20031;-83
2022/11/20 04:19:16;;;;;;;13.63;3.85;;;;;;;18.22;69.96;99029.97;5070852;28;20016;-83
2022/11/20 04:21:44;;;;;;;13.32;3.88;;;;;;;18.42;69.88;99053.59;5052785;28;20099;-82
2022/11/20 04:24:10;;;;;;;12.18;4.45;;;;;;;18.43;70.00;99065.91;5052686;28;20027;-82
2022/11/20 04:26:37;;;;;;;12.02;3.58;;;;;;;18.27;69.96;99056.78;5070704;28;20095;-83
2022/11/20 04:29:03;;;;;;;11.82;3.67;;;;;;;18.38;70.09;99077.31;5070938;28;20020;-82
2022/11/20 04:31:30;;;;;;;11.25;3.45;;;;;;;18.39;69.98;99078.94;5053436;28;20055;-83
2022/11/20 04:34:03;;;;;;;9.15;3.53;;;;;;;18.39;70.11;99068.25;5056797;28;20032;-82
2022/11/20 04:36:29;;;;;;;8.48;3.42;;;;;;;18.37;70.18;99082.91;5074392;28;20028;-82
2022/11/20 04:38:59;;;;;;;9.32;3.58;;;;;;;17.70;70.23;98984.66;5056472;28;20024;-82
2022/11/20 04:41:27;;;;;;;10.90;3.80;;;;;;;17.75;70.09;98979.41;5056551;28;20016;-83
2022/11/20 04:44:04;;;;;;;10.73;3.75;;;;;;;17.78;70.19;98997.63;5074337;28;20082;-82
2022/11/20 04:46:50;;;;;;;10.10;3.50;;;;;;;18.14;70.29;99054.41;5056248;28;20046;-83
2022/11/20 04:49:15;;;;;;;12.30;4.20;;;;;;;17.57;70.44;98955.53;5073552;28;20037;-82
2022/11/20 04:51:40;;;;;;;10.40;3.17;;;;;;;18.02;70.51;99032.28;5074246;28;20020;-82
2022/11/20 04:54:06;;;;;;;12.88;3.78;;;;;;;18.18;70.33;99068.09;5056136;28;20020;-83
2022/11/20 04:56:31;;;;;;;11.15;4.25;;;;;;;18.18;70.19;99050.22;5074166;28;20046;-83
2022/11/20 04:59:00;;;;;;;12.95;3.50;;;;;;;18.04;70.52;99043.53;5074282;28;20074;-82
2022/11/20 05:01:25;;;;;;;12.15;4.18;;;;;;;18.37;70.26;99112.28;5074027;28;20566;-83
2022/11/20 05:03:51;;;;;;;12.77;3.67;;;;;;;17.91;70.62;99028.59;5073923;28;20024;-83
2022/11/20 05:06:19;;;;;;;10.00;2.92;;;;;;;18.38;70.26;99085.31;5073930;28;20020;-82
2022/11/20 05:08:45;;;;;;;11.35;3.40;;;;;;;18.39;70.23;99102.97;5074005;28;20056;-82
2022/11/20 05:11:13;;;;;;;10.35;3.10;;;;;;;18.31;70.14;99071.31;5073836;28;20024;-83
2022/11/20 05:13:39;;;;;;;12.25;3.47;;;;;;;18.39;70.41;99094.16;5073888;28;20082;-82
2022/11/20 05:16:13;;;;;;;13.55;3.40;;;;;;;17.74;70.06;98996.47;5073526;28;20048;-82
2022/11/20 05:18:39;;;;;;;12.07;3.47;;;;;;;18.41;70.18;99102.75;5073694;28;20029;-83
2022/11/20 05:21:06;;;;;;;11.95;3.45;;;;;;;17.74;70.14;99003.69;5073708;28;20409;-82
2022/11/20 05:23:32;;;;;;;12.88;3.72;;;;;;;18.40;70.29;99101.13;5055672;28;20504;-82
2022/11/20 05:25:58;;;;;;;14.93;3.47;;;;;;;17.88;70.12;99057.66;5073626;28;20024;-83
2022/11/20 05:28:24;;;;;;;10.77;3.30;;;;;;;18.20;69.95;99080.19;5073392;28;20163;-82
2022/11/20 05:30:50;;;;;;;17.48;4.18;;;;;;;18.20;70.14;99060.66;5073265;28;20031;-83
2022/11/20 05:33:16;;;;;;;14.23;3.63;;;;;;;17.95;70.17;99034.28;5073207;28;20021;-82
2022/11/20 05:35:42;;;;;;;14.63;4.22;;;;;;;18.41;70.10;99108.09;5055367;28;20017;-83
2022/11/20 05:38:07;;;;;;;14.00;3.38;;;;;;;17.68;69.89;98980.59;5073322;28;20034;-82
2022/11/20 05:40:33;;;;;;;12.88;4.22;;;;;;;17.73;69.87;98994.03;5073292;28;20416;-82
2022/11/20 05:42:59;;;;;;;13.77;3.75;;;;;;;18.30;69.96;99077.69;5072490;28;20025;-82
2022/11/20 05:45:25;;;;;;;11.73;4.18;;;;;;;18.02;69.93;99045.63;5073029;28;20024;-83
2022/11/20 05:47:50;;;;;;;16.63;4.63;;;;;;;17.68;70.04;98986.75;5073063;28;20032;-82
2022/11/20 05:50:16;;;;;;;9.82;3.47;;;;;;;17.66;70.16;99012.88;5072924;28;20020;-82
2022/11/20 05:52:41;;;;;;;9.63;4.18;;;;;;;17.86;70.01;99012.50;5072794;28;20029;-82
2022/11/20 05:55:07;;;;;;;10.32;3.60;;;;;;;18.42;69.80;99102.50;5072762;28;20027;-82
2022/11/20 05:57:33;;;;;;;12.63;4.03;;;;;;;18.43;69.73;99101.47;5072819;28;20107;-82
2022/11/20 05:59:58;;;;;;;14.43;4.15;;;;;;;18.13;69.62;99057.31;5072786;28;20104;-82
2022/11/20 06:02:24;;;;;;;10.73;3.28;;;;;;;17.58;69.61;98967.03;5072869;28;20523;-82
2022/11/20 06:04:49;;;;;;;12.60;3.88;;;;;;;17.89;69.62;99017.34;5055021;28;20025;-82
2022/11/20 06:07:15;;;;;;;11.55;3.50;;;;;;;18.45;69.82;99103.88;5072919;28;20024;-82
2022/11/20 06:09:40;;;;;;;12.30;3.30;;;;;;;18.46;69.25;99102.84;5072755;28;20434;-83
2022/11/20 06:12:06;;;;;;;11.38;3.40;;;;;;;17.80;69.21;99000.06;5072851;28;20423;-82
2022/11/20 06:14:32;;;;;;;9.80;3.22;;;;;;;18.49;69.15;99107.69;5072670;28;20135;-82
2022/11/20 06:16:58;;;;;;;10.20;3.30;;;;;;;18.03;68.89;99033.91;5072471;28;20489;-82
2022/11/20 06:19:23;;;;;;;12.75;3.83;;;;;;;18.51;69.10;99115.47;5054444;28;20031;-83
2022/11/20 06:21:49;;;;;;;12.45;3.60;;;;;;;17.99;68.62;99030.09;5054655;28;20100;-83
2022/11/20 06:24:15;;;;;;;15.65;4.80;;;;;;;17.76;68.97;98994.38;5072712;28;20020;-83
2022/11/20 06:26:41;;;;;;;16.63;3.97;;;;;;;17.88;68.90;99009.56;5054362;28;20013;-82
2022/11/20 06:29:06;;;;;;;13.73;3.75;;;;;;;17.95;68.69;99018.25;5072363;28;20017;-82
2022/11/20 06:31:34;;;;;;;13.40;3.90;;;;;;;18.29;68.79;99096.63;5054252;28;20386;-83
2022/11/20 06:34:00;;;;;;;12.80;3.45;;;;;;;18.48;68.50;99105.28;5054197;28;20048;-83
2022/11/20 06:36:26;;;;;;;12.45;3.50;;;;;;;18.61;68.69;99119.22;5072096;28;20036;-82
2022/11/20 06:38:51;;;;;;;13.05;4.25;;;;;;;18.64;68.69;99145.47;5072110;28;20024;-82
2022/11/20 06:41:19;;;;;;;11.98;4.15;;;;;;;18.09;68.40;99048.97;5054120;28;20024;-83
2022/11/20 06:43:45;;;;;;;11.43;3.65;;;;;;;18.36;68.25;99094.63;5072282;28;20031;-82
2022/11/20 06:46:13;;;;;;;8.93;3.03;;;;;;;18.24;68.04;99072.50;5072168;28;20016;-83
2022/11/20 06:48:39;;;;;;;12.35;4.45;;;;;;;18.28;68.11;99078.97;5054166;28;20029;-82
2022/11/20 06:51:06;;;;;;;15.40;3.55;;;;;;;18.08;68.19;99036.66;5071779;28;20027;-83
2022/11/20 06:53:32;;;;;;;12.52;3.85;;;;;;;18.62;68.26;99134.22;5071852;28;20028;-82
2022/11/20 06:55:57;;;;;;;13.63;4.05;;;;;;;18.40;67.76;99101.94;5071509;28;20420;-83
2022/11/20 06:58:23;;;;;;;13.60;3.70;;;;;;;17.86;68.01;99049.06;5053798;28;20032;-83
2022/11/20 07:00:48;;;;;;;12.82;4.22;;;;;;;17.89;67.84;99022.69;5072149;28;20024;-82
2022/11/20 07:03:14;;;;;;;13.38;3.53;;;;;;;18.15;67.66;99065.91;5071975;28;20036;-83
2022/11/20 07:05:40;;;;;;;9.60;3.33;;;;;;;18.13;67.73;99057.31;5071929;28;20047;-82
2022/11/20 07:08:05;;;;;;;14.32;4.00;;;;;;;18.81;67.75;99160.75;5056180;28;20090;-82
2022/11/20 07:10:31;;;;;;;11.73;4.05;;;;;;;18.85;67.55;99159.19;5071695;28;20150;-83
2022/11/20 07:12:57;;;;;;;9.32;3.50;;;;;;;18.61;67.37;99129.91;5071874;28;20546;-82
2022/11/20 07:15:24;;;;;;;9.18;3.78;;;;;;;18.54;67.37;99125.69;5071383;28;20508;-82
2022/11/20 07:17:50;;;;;;;15.15;4.20;;;;;;;18.85;67.44;99169.91;5069901;28;20036;-83
2022/11/20 07:20:16;;;;;;;10.90;3.63;;;;;;;18.87;67.29;99170.47;5071598;28;20020;-83
2022/11/20 07:22:42;;;;;;;13.85;4.13;;;;;;;18.82;67.15;99154.34;5071491;28;20017;-82
2022/11/20 07:25:08;;;;;;;12.88;3.83;;;;;;;18.75;66.92;99138.44;5070256;28;20024;-82
2022/11/20 07:27:34;;;;;;;15.48;3.70;;;;;;;18.46;67.00;99102.84;5071470;28;20016;-82
2022/11/20 07:29:59;;;;;;;7.15;3.20;;;;;;;18.80;67.05;99143.06;5069972;28;20028;-82
2022/11/20 07:32:24;;;;;;;10.95;3.00;;;;;;;18.29;66.89;99113.50;5071167;28;20028;-82
2022/11/20 07:34:50;;;;;;;12.27;3.47;;;;;;;18.74;66.91;99142.16;5071294;28;20512;-83
2022/11/20 07:37:15;;;;;;;15.63;3.92;;;;;;;18.24;66.69;99064.47;5071154;28;20029;-82
2022/11/20 07:39:41;;;;;;;14.73;4.30;;;;;;;18.77;66.51;99154.25;5071078;28;20082;-82
2022/11/20 07:42:07;;;;;;;11.70;3.90;;;;;;;18.97;66.54;99168.78;5071096;28;20048;-83
2022/11/20 07:44:33;;;;;;;16.17;5.13;;;;;;;18.97;66.45;99163.44;5070912;28;20095;-82
2022/11/20 07:46:58;;;;;;;14.05;4.38;;;;;;;19.00;66.41;99186.22;5071320;28;20103;-82
2022/11/20 07:49:24;;;;;;;10.48;3.90;;;;;;;18.46;66.46;99102.84;5071249;28;20024;-81
2022/11/20 07:51:55;;;;;;;10.25;3.53;;;;;;;19.03;66.37;99180.38;5071207;28;20036;-83
2022/11/20 07:54:21;;;;;;;12.68;4.07;;;;;;;18.39;66.16;99065.56;5070044;28;20501;-81
2022/11/20 07:56:48;;;;;;;13.82;4.60;;;;;;;19.06;66.15;99174.56;5071190;28;20485;-82
2022/11/20 07:59:13;;;;;;;13.82;3.70;;;;;;;19.08;66.08;99171.63;5071126;28;20489;-82
2022/11/20 08:01:40;;;;;;;12.63;3.85;;;;;;;19.09;66.17;99168.72;5069927;28;20174;-82
2022/11/20 08:04:05;;;;;;;17.30;3.80;;;;;;;18.42;65.96;99053.59;5071093;28;20051;-82
2022/11/20 08:06:31;;;;;;;16.85;4.32;;;;;;;18.13;66.07;98990.53;5070484;28;20485;-81
2022/11/20 08:08:56;;;;;;;14.82;4.72;;;;;;;19.17;66.04;99159.47;5073641;28;20437;-84
2022/11/20 08:14:11;;;;;;;11.43;3.70;;;;;;;18.90;65.51;99119.97;5075282;28;20073;-82
2022/11/20 08:16:38;;;;;;;14.10;3.83;;;;;;;18.83;65.50;99115.84;5074712;28;20021;-82
2022/11/20 08:19:03;;;;;;;14.60;4.40;;;;;;;18.96;65.05;99151.13;5074823;28;20107;-82
2022/11/20 08:21:30;;;;;;;13.48;4.20;;;;;;;18.53;64.87;99062.59;5074889;28;20485;-81
2022/11/20 08:23:57;;;;;;;12.77;4.00;;;;;;;19.07;64.75;99133.34;5074767;28;20054;-81
2022/11/20 08:26:23;;;;;;;14.00;4.53;;;;;;;19.35;64.20;99173.44;5074628;28;20027;-82
2022/11/20 08:28:48;;;;;;;16.27;4.65;;;;;;;18.65;64.27;99060.72;5074585;28;20021;-83
2022/11/20 08:31:14;;;;;;;19.67;4.35;;;;;;;19.17;63.95;99130.03;5074695;28;20025;-83
2022/11/20 08:33:39;;;;;;;14.88;4.10;;;;;;;19.39;63.94;99155.03;5074462;28;20031;-83
2022/11/20 08:36:06;;;;;;;14.57;3.75;;;;;;;19.37;64.15;99146.44;5074631;28;20032;-83
2022/11/20 08:38:32;;;;;;;21.05;5.15;;;;;;;18.76;63.95;99041.09;5073080;28;20382;-82
2022/11/20 08:43:42;;;;;;;13.55;4.25;;;;;;;18.96;64.04;99054.00;5074705;28;20524;-82
2022/11/20 08:46:08;;;;;;;13.80;4.60;;;;;;;18.87;64.21;99040.22;5074609;28;20016;-82
2022/11/20 08:48:33;;;;;;;20.70;4.57;;;;;;;18.76;63.42;99027.72;5074458;28;20025;-82
2022/11/20 08:50:59;;;;;;;15.95;4.15;;;;;;;19.38;63.85;99099.88;5074492;28;20024;-82
2022/11/20 08:53:25;;;;;;;17.13;5.15;;;;;;;19.01;63.78;99040.69;5074189;28;20547;-82
2022/11/20 08:55:50;;;;;;;17.55;5.20;;;;;;;19.35;63.83;99113.75;5074315;28;20017;-82
2022/11/20 08:58:16;;;;;;;15.45;5.47;;;;;;;18.78;63.42;98990.84;5074353;28;20416;-83
2022/11/20 09:00:41;;;;;;;17.10;5.43;;;;;;;19.02;63.27;99027.06;5073933;28;20020;-83
2022/11/20 09:03:06;;;;;;;18.25;5.18;;;;;;;19.07;63.32;99044.25;5073863;28;20020;-81
2022/11/20 09:05:32;;;;;;;15.35;4.68;;;;;;;18.83;63.50;99000.81;5074021;28;20505;-82
2022/11/20 09:07:58;;;;;;;17.02;4.93;;;;;;;19.04;63.34;99026.81;5073876;28;20047;-83
2022/11/20 09:10:24;;;;;;;15.40;4.88;;;;;;;18.75;63.34;98998.56;5073686;28;20448;-82
2022/11/20 09:12:51;;;;;;;21.17;5.70;;;;;;;19.34;63.20;99088.84;5073695;28;20025;-83
2022/11/20 09:15:16;;;;;;;17.30;3.92;;;;;;;19.13;63.26;99035.25;5073651;28;20020;-83
2022/11/20 09:17:42;;;;;;;20.27;4.50;;;;;;;18.91;63.08;99009.25;5072989;28;20478;-83
2022/11/20 09:20:08;;;;;;;15.32;5.10;;;;;;;18.88;63.02;98993.69;5073034;28;20032;-83
2022/11/20 09:22:33;;;;;;;23.85;5.60;;;;;;;19.60;62.78;99116.81;5073660;28;20111;-83
2022/11/20 09:24:59;;;;;;;20.40;5.95;;;;;;;19.48;62.81;99086.63;5074118;28;20027;-83
2022/11/20 09:27:24;;;;;;;20.42;5.10;;;;;;;18.85;62.26;98988.00;5073501;28;20408;-82
2022/11/20 09:29:49;;;;;;;16.13;4.05;;;;;;;19.58;62.28;99094.00;5073451;28;20031;-82
2022/11/20 09:32:15;;;;;;;20.95;4.70;;;;;;;18.98;62.09;98972.44;5073546;28;20027;-82
2022/11/20 09:34:40;;;;;;;19.63;4.85;;;;;;;19.19;62.05;99004.81;5073275;28;20104;-81
2022/11/20 09:37:06;;;;;;;20.75;5.57;;;;;;;19.18;61.75;98979.91;5073796;28;20077;-82
2022/11/20 09:39:31;;;;;;;18.23;5.65;;;;;;;19.20;61.62;98987.69;5073374;28;20031;-83
2022/11/20 09:42:14;;;;;;;21.90;5.57;;;;;;;20.02;61.61;99099.38;5055354;28;20028;-83
2022/11/20 09:45:13;;;;;;;23.90;5.63;;;;;;;20.06;61.39;99095.16;5055600;28;20058;-83
2022/11/20 09:47:49;;;;;;;19.00;5.30;;;;;;;20.04;61.50;99073.97;5055245;28;20016;-83
2022/11/20 09:50:32;;;;;;;22.85;4.90;;;;;;;20.18;60.98;99080.56;5055191;28;20028;-83
2022/11/20 09:53:27;;;;;;;23.08;5.55;;;;;;;19.92;60.68;99033.91;5073269;28;20082;-82
2022/11/20 09:55:53;;;;;;;24.33;5.68;;;;;;;19.70;60.44;99002.84;5072952;28;20150;-82
2022/11/20 09:58:43;;;;;;;25.00;6.47;;;;;;;20.42;60.41;99077.63;5073008;28;20519;-82
2022/11/20 10:01:15;;;;;;;26.83;5.60;;;;;;;20.53;59.93;99082.03;5073012;28;20100;-83
2022/11/20 10:04:04;;;;;;;28.10;5.30;;;;;;;20.55;59.64;99104.03;5072701;28;20024;-83
2022/11/20 10:06:34;;;;;;;22.02;5.18;;;;;;;20.55;59.59;99087.94;5072584;28;20020;-82
2022/11/20 10:09:11;;;;;;;26.23;6.10;;;;;;;20.57;59.62;99102.72;5072684;28;20076;-82
2022/11/20 10:11:58;;;;;;;21.63;5.28;;;;;;;20.60;59.13;99088.81;5072537;28;20024;-81
2022/11/20 10:14:39;;;;;;;22.73;6.13;;;;;;;20.71;59.34;99092.38;5072513;28;20024;-80
2022/11/20 10:17:23;;;;;;;23.63;6.03;;;;;;;20.56;58.93;99043.97;5072600;28;20583;-83
2022/11/20 10:20:14;;;;;;;27.08;6.35;;;;;;;20.50;58.71;99036.94;5072451;28;20020;-83
2022/11/20 10:23:16;;;;;;;26.23;6.30;;;;;;;20.98;58.25;99096.94;5072442;28;20100;-82
2022/11/20 10:25:59;;;;;;;18.55;5.68;;;;;;;20.56;58.65;99015.28;5054528;28;20508;-83
2022/11/20 10:28:35;;;;;;;16.58;5.50;;;;;;;21.10;58.16;99084.94;5054358;28;20128;-81
2022/11/20 10:31:04;;;;;;;21.63;5.05;;;;;;;21.23;57.72;99078.34;5071926;28;20024;-81
2022/11/20 10:33:36;;;;;;;24.05;5.15;;;;;;;21.27;57.28;99086.69;5072527;28;20081;-81
2022/11/20 10:36:14;;;;;;;16.92;4.88;;;;;;;20.87;57.42;99016.34;5072442;28;20021;-83
2022/11/20 10:39:11;;;;;;;28.70;5.80;;;;;;;21.33;57.39;99073.03;5072170;28;20081;-83
2022/11/20 10:41:41;;;;;;;21.08;5.13;;;;;;;20.89;56.99;98991.94;5071899;28;20035;-82
2022/11/20 10:47:14;;;;;;;25.95;6.88;;;;;;;20.99;56.22;98988.50;5072164;28;20124;-83
2022/11/20 10:49:42;;;;;;;23.35;5.35;;;;;;;20.84;56.37;98959.69;5071863;28;20013;-81
2022/11/20 10:52:16;;;;;;;26.10;5.63;;;;;;;21.48;56.05;99053.50;5071798;28;20037;-83
2022/11/20 10:54:50;;;;;;;24.70;5.63;;;;;;;21.44;56.12;99042.47;5072047;28;20111;-83
2022/11/20 10:57:43;;;;;;;22.70;5.13;;;;;;;21.28;56.09;99032.72;5071813;28;20060;-83
2022/11/20 11:00:13;;;;;;;27.92;5.72;;;;;;;21.03;56.00;98985.03;5071918;28;20028;-83
2022/11/20 11:02:46;;;;;;;30.33;8.82;;;;;;;21.48;56.28;99045.47;5071875;28;20025;-82
2022/11/20 11:05:32;;;;;;;23.08;6.22;;;;;;;21.18;56.16;98976.25;5071921;28;20107;-83
2022/11/20 11:07:58;;;;;;;24.55;5.88;;;;;;;21.51;56.06;99015.38;5071662;28;20048;-82
2022/11/20 11:10:36;;;;;;;34.78;6.72;;;;;;;21.05;55.81;98933.78;5071903;28;20028;-82
2022/11/20 11:13:01;;;;;;;25.10;5.55;;;;;;;21.27;56.01;98969.34;5053629;28;20032;-82
2022/11/20 11:15:39;;;;;;;26.35;5.82;;;;;;;21.22;56.02;98958.56;5071575;28;20036;-82
2022/11/20 11:18:08;;;;;;;22.35;6.35;;;;;;;21.48;55.89;98989.06;5071257;28;20056;-81
2022/11/20 11:20:34;;;;;;;34.00;9.95;;;;;;;21.50;56.21;98979.66;5071490;28;20017;-82
2022/11/20 11:23:00;;;;;;;24.13;6.72;;;;;;;21.05;55.87;98915.00;5071504;28;20086;-82
2022/11/20 11:25:34;;;;;;;27.00;8.32;;;;;;;21.56;55.73;98969.78;5071530;28;20024;-82
2022/11/20 11:28:17;;;;;;;22.15;7.18;;;;;;;20.84;55.05;98853.19;5071317;28;20020;-82
2022/11/20 11:30:44;;;;;;;36.10;11.38;;;;;;;21.55;55.13;98957.38;5071181;28;20060;-82
2022/11/20 11:33:11;;;;;;;26.13;7.90;;;;;;;21.70;54.83;98959.34;5071369;28;20142;-82
2022/11/20 11:36:00;;;;;;;30.98;11.40;;;;;;;21.67;55.06;98959.88;5071389;28;20476;-82
2022/11/20 11:38:35;;;;;;;35.60;8.43;;;;;;;21.69;54.88;98957.72;5071281;28;20041;-83
2022/11/20 11:41:01;;;;;;;25.60;5.60;;;;;;;21.56;54.81;98949.09;5052613;28;20066;-82
2022/11/20 11:46:20;;;;;;;30.25;6.22;;;;;;;21.68;54.46;98956.09;5071499;28;20032;-83